Norwich, Canada
Current Conditions -  °F | °C
As of 4:11 AM on Saturday 29 Nov 2014 (Local Time) from CYXU Reporting Station
Overcast Overcast  
Wind Chill: 17°   Ceiling: 8300
Heat Index: 25°   Visibility: 15mi
Dew Point: 23°   Wind: 7mph
Humidity: 93%   Direction: 110°ESE
Pressure: 30.06"   Gusts: NA
Location:  42.98°N, 80.6°W
Report Text: CYXU 290911Z 11006KT 15SM SCT060 OVC083 M04/M05 A3006 RMK SC4AC4 SLP195
Loading
Personal Weather Stations






























Interactive Weather Map New forecast layout! Learn more

10-Day Weather Forecast

Advertisements
Track Severe Weather on mobile